createdAt,value
2019-04-10T00:09:13.660Z,0.0
2019-04-10T00:19:30.836Z,0.0
2019-04-10T00:31:19.986Z,0.0
2019-04-10T00:41:36.494Z,0.0
2019-04-10T00:51:49.841Z,0.0
2019-04-10T01:02:00.623Z,0.0
2019-04-10T01:12:13.953Z,0.0
2019-04-10T01:22:27.653Z,0.0
2019-04-10T01:32:41.876Z,0.0
2019-04-10T01:43:02.525Z,0.0
2019-04-10T01:53:06.474Z,0.0
2019-04-10T02:05:34.667Z,0.0
2019-04-10T02:18:30.418Z,0.0
2019-04-10T02:31:21.461Z,0.0
2019-04-10T02:41:34.374Z,0.0
2019-04-10T02:52:25.287Z,0.0
2019-04-10T03:02:40.950Z,0.0
2019-04-10T03:14:04.514Z,0.0
2019-04-10T03:24:16.029Z,0.0
2019-04-10T03:34:31.386Z,0.0
2019-04-10T03:44:41.466Z,0.0
2019-04-10T03:54:52.829Z,0.0
2019-04-10T04:05:06.501Z,0.0
2019-04-10T04:15:21.871Z,0.0
2019-04-10T04:26:07.152Z,12.0
2019-04-10T04:36:52.237Z,64.0
2019-04-10T04:47:07.614Z,200.0
2019-04-10T04:57:18.765Z,460.0
2019-04-10T05:07:33.353Z,812.0
2019-04-10T05:17:44.961Z,1208.0
2019-04-10T05:27:55.587Z,1616.0
2019-04-10T05:38:06.746Z,2016.0
2019-04-10T05:48:52.758Z,2420.0
2019-04-10T05:59:38.432Z,2808.0
2019-04-10T06:09:55.804Z,3120.0
2019-04-10T06:20:04.941Z,3440.0
2019-04-10T06:30:18.131Z,3808.0
2019-04-10T06:41:03.495Z,4220.0
2019-04-10T06:51:18.773Z,4692.0
2019-04-10T07:02:13.112Z,12672.0
2019-04-10T07:12:14.407Z,6896.0
2019-04-10T07:22:25.445Z,17824.0
2019-04-10T07:32:40.911Z,17984.0
2019-04-10T07:42:50.472Z,20704.0
2019-04-10T07:53:35.799Z,24576.0
2019-04-10T08:03:52.154Z,25760.0
2019-04-10T08:14:01.274Z,30240.0
2019-04-10T08:24:47.257Z,35648.0
2019-04-10T08:35:15.356Z,34880.0
2019-04-10T08:45:36.721Z,46752.0
2019-04-10T08:55:42.110Z,48352.0
2019-04-10T09:05:53.111Z,47424.0
2019-04-10T09:16:07.162Z,57472.0
2019-04-10T09:26:20.264Z,56864.0
2019-04-10T09:37:05.980Z,61408.0
2019-04-10T09:47:16.789Z,62048.0
2019-04-10T09:59:07.553Z,65440.0
2019-04-10T10:09:41.715Z,65760.0
2019-04-10T10:19:57.424Z,72256.0
2019-04-10T10:30:09.340Z,70784.0
2019-04-10T10:40:54.700Z,72032.0
2019-04-10T10:51:06.697Z,67136.0
2019-04-10T11:01:17.975Z,68224.0
2019-04-10T11:12:36.538Z,69184.0
2019-04-10T11:22:50.232Z,74336.0
2019-04-10T11:33:04.071Z,80640.0
2019-04-10T11:43:19.122Z,47104.0
2019-04-10T11:53:39.123Z,83392.0
2019-04-10T12:03:51.583Z,71680.0
2019-04-10T12:14:39.562Z,74272.0
2019-04-10T12:24:51.387Z,67328.0
2019-04-10T12:35:01.693Z,65600.0
2019-04-10T12:45:48.665Z,67392.0
2019-04-10T12:56:02.166Z,67712.0
2019-04-10T13:06:13.647Z,62368.0
2019-04-10T13:16:25.774Z,67712.0
2019-04-10T13:27:12.573Z,60992.0
2019-04-10T13:37:28.368Z,55296.0
2019-04-10T13:47:39.140Z,53056.0
2019-04-10T13:57:52.971Z,33824.0
2019-04-10T14:08:10.339Z,22240.0
2019-04-10T14:18:59.136Z,22432.0
2019-04-10T14:29:14.328Z,22400.0
2019-04-10T14:39:25.546Z,21760.0
2019-04-10T14:50:55.709Z,31200.0
2019-04-10T15:01:09.923Z,32032.0
2019-04-10T15:11:24.761Z,27072.0
2019-04-10T15:21:36.646Z,18208.0
2019-04-10T15:31:50.167Z,15808.0
2019-04-10T15:44:15.023Z,14432.0
2019-04-10T15:54:32.109Z,8320.0
2019-04-10T16:08:29.243Z,7456.0
2019-04-10T16:18:44.275Z,6056.0
2019-04-10T16:29:09.764Z,9388.0
2019-04-10T16:40:03.612Z,4444.0
2019-04-10T16:50:14.932Z,3908.0
2019-04-10T17:03:46.442Z,3260.0
2019-04-10T17:14:02.743Z,2680.0
2019-04-10T17:25:48.976Z,2264.0
2019-04-10T17:37:28.107Z,1736.0
2019-04-10T17:48:14.053Z,1244.0
2019-04-10T17:58:28.114Z,812.0
2019-04-10T18:11:05.905Z,432.0
2019-04-10T18:22:55.992Z,148.0
2019-04-10T19:10:26.393Z,0.0
2019-04-10T19:22:52.969Z,0.0
2019-04-10T19:34:29.513Z,0.0
2019-04-10T19:47:50.619Z,0.0
2019-04-10T19:58:05.906Z,0.0
2019-04-10T20:08:50.818Z,0.0
2019-04-10T20:19:38.505Z,0.0
2019-04-10T20:33:43.196Z,0.0
2019-04-10T20:43:57.356Z,0.0
